createdAt,value
2018-02-13T00:01:28.202Z,99.10
2018-02-13T00:03:55.837Z,99.00
2018-02-13T00:06:23.449Z,98.90
2018-02-13T00:08:51.113Z,99.50
2018-02-13T00:11:18.729Z,99.70
2018-02-13T00:13:46.340Z,99.70
2018-02-13T00:16:13.980Z,99.60
2018-02-13T00:18:41.595Z,99.50
2018-02-13T00:21:09.240Z,99.40
2018-02-13T00:23:36.848Z,99.50
2018-02-13T00:26:04.460Z,99.50
2018-02-13T00:28:32.865Z,98.70
2018-02-13T00:31:01.253Z,99.70
2018-02-13T00:33:28.908Z,98.90
2018-02-13T00:35:56.520Z,99.60
2018-02-13T00:38:24.136Z,99.50
2018-02-13T00:40:51.785Z,99.40
2018-02-13T00:43:19.412Z,99.30
2018-02-13T00:45:47.828Z,99.10
2018-02-13T00:48:15.445Z,99.00
2018-02-13T00:50:43.063Z,98.70
2018-02-13T00:53:11.468Z,99.40
2018-02-13T00:55:39.080Z,98.70
2018-02-13T00:58:06.725Z,98.80
2018-02-13T01:00:34.337Z,98.80
2018-02-13T01:03:01.949Z,98.80
2018-02-13T01:05:30.365Z,98.80
2018-02-13T01:07:57.980Z,98.90
2018-02-13T01:10:25.628Z,99.00
2018-02-13T01:12:53.232Z,99.00
2018-02-13T01:15:20.845Z,98.90
2018-02-13T01:17:48.480Z,99.10
2018-02-13T01:20:16.092Z,98.80
2018-02-13T01:22:43.706Z,98.50
2018-02-13T01:25:11.348Z,98.10
2018-02-13T01:27:38.962Z,98.00
2018-02-13T01:30:06.590Z,97.90
2018-02-13T01:32:34.232Z,98.10
2018-02-13T01:35:02.631Z,98.70
2018-02-13T01:37:30.240Z,98.70
2018-02-13T01:39:57.876Z,99.10
2018-02-13T01:42:26.256Z,99.90
2018-02-13T01:44:53.913Z,99.20
2018-02-13T01:47:21.528Z,99.10
2018-02-13T01:49:49.901Z,99.00
2018-02-13T01:52:17.544Z,99.10
2018-02-13T01:54:45.155Z,99.10
2018-02-13T01:57:12.808Z,98.80
2018-02-13T01:59:40.412Z,97.80
2018-02-13T02:02:08.784Z,97.80
2018-02-13T02:04:36.416Z,97.80
2018-02-13T02:07:04.020Z,97.30
2018-02-13T02:09:31.660Z,97.10
2018-02-13T02:11:59.277Z,96.60
2018-02-13T02:14:26.882Z,97.20
2018-02-13T02:16:55.285Z,97.20
2018-02-13T02:19:22.901Z,97.10
2018-02-13T02:21:50.549Z,97.60
2018-02-13T02:24:18.158Z,98.00
2018-02-13T02:26:45.770Z,97.60
2018-02-13T02:29:13.408Z,97.10
2018-02-13T02:31:41.012Z,96.10
2018-02-13T02:34:09.424Z,94.40
2018-02-13T02:36:37.033Z,94.40
2018-02-13T02:39:04.650Z,93.90
2018-02-13T02:41:33.057Z,93.00
2018-02-13T02:44:00.666Z,93.10
2018-02-13T02:46:28.313Z,93.30
2018-02-13T02:48:55.922Z,93.50
2018-02-13T02:51:23.532Z,93.90
2018-02-13T02:53:51.928Z,94.80
2018-02-13T02:56:20.319Z,95.10
2018-02-13T02:58:48.726Z,95.30
2018-02-13T03:01:16.332Z,95.20
2018-02-13T03:03:43.952Z,95.40
2018-02-13T03:06:11.585Z,95.80
2018-02-13T03:08:39.188Z,96.00
2018-02-13T03:11:06.848Z,96.10
2018-02-13T03:13:34.456Z,96.30
2018-02-13T03:16:02.841Z,96.60
2018-02-13T03:18:31.238Z,96.80
2018-02-13T03:20:59.609Z,96.80
2018-02-13T03:23:27.257Z,96.80
2018-02-13T03:25:54.876Z,96.80
2018-02-13T03:28:22.493Z,97.10
2018-02-13T03:30:50.133Z,97.00
2018-02-13T03:33:18.521Z,97.70
2018-02-13T03:35:46.945Z,97.80
2018-02-13T03:38:14.552Z,97.80
2018-02-13T03:40:42.168Z,98.00
2018-02-13T03:43:09.904Z,98.30
2018-02-13T03:45:37.530Z,98.50
2018-02-13T03:48:05.180Z,98.60
2018-02-13T03:50:33.549Z,98.50
2018-02-13T03:53:01.154Z,98.40
2018-02-13T03:55:29.548Z,98.00
2018-02-13T03:57:57.917Z,97.80
2018-02-13T04:00:25.577Z,97.80
2018-02-13T04:02:53.193Z,97.80
2018-02-13T04:05:20.796Z,97.90
2018-02-13T04:07:48.425Z,98.00
2018-02-13T04:10:16.796Z,97.10
2018-02-13T04:12:44.441Z,97.10
2018-02-13T04:15:12.056Z,96.90
2018-02-13T04:17:39.663Z,96.60
2018-02-13T04:20:07.291Z,96.40
2018-02-13T04:22:34.896Z,96.40
2018-02-13T04:25:03.311Z,95.90
2018-02-13T04:27:30.915Z,95.90
2018-02-13T04:29:58.529Z,96.10
2018-02-13T04:32:26.933Z,96.20
2018-02-13T04:34:54.540Z,96.10
2018-02-13T04:37:22.180Z,95.90
2018-02-13T04:39:49.786Z,95.90
2018-02-13T04:42:17.396Z,96.00
2018-02-13T04:44:45.037Z,96.40
2018-02-13T04:47:12.672Z,96.70
2018-02-13T04:49:40.316Z,96.80
2018-02-13T04:52:07.933Z,96.80
2018-02-13T04:54:35.554Z,97.70
2018-02-13T04:57:03.201Z,97.40
2018-02-13T04:59:30.816Z,97.30
2018-02-13T05:01:58.557Z,97.40
2018-02-13T05:04:26.177Z,97.60
2018-02-13T05:06:54.576Z,98.00
2018-02-13T05:09:22.987Z,97.60
2018-02-13T05:11:50.606Z,97.50
2018-02-13T05:14:18.264Z,97.70
2018-02-13T05:16:45.889Z,97.70
2018-02-13T05:19:13.523Z,97.90
2018-02-13T05:21:41.164Z,97.70
2018-02-13T05:24:08.777Z,97.50
2018-02-13T05:26:36.432Z,97.10
2018-02-13T05:29:04.050Z,96.70
2018-02-13T05:31:32.429Z,95.40
2018-02-13T05:34:00.073Z,95.40
2018-02-13T05:36:27.704Z,95.20
2018-02-13T05:38:55.348Z,95.40
2018-02-13T05:41:24.396Z,96.00
2018-02-13T05:43:52.013Z,96.40
2018-02-13T05:46:19.655Z,96.30
2018-02-13T05:48:47.273Z,96.30
2018-02-13T05:51:14.938Z,96.30
2018-02-13T05:53:42.701Z,96.60
2018-02-13T05:56:10.324Z,96.10
2018-02-13T05:58:38.730Z,96.40
2018-02-13T06:01:07.161Z,96.40
2018-02-13T06:03:34.985Z,95.80
2018-02-13T06:06:03.378Z,96.20
2018-02-13T06:08:31.990Z,96.40
2018-02-13T06:10:59.639Z,96.40
2018-02-13T06:13:27.253Z,96.70
2018-02-13T06:15:54.904Z,97.10
2018-02-13T06:18:22.535Z,97.10
2018-02-13T06:20:50.177Z,97.20
2018-02-13T06:23:17.828Z,97.40
2018-02-13T06:25:46.215Z,97.90
2018-02-13T06:28:14.653Z,97.80
2018-02-13T06:30:42.269Z,97.90
2018-02-13T06:33:09.886Z,98.00
2018-02-13T06:35:37.557Z,98.00
2018-02-13T06:38:05.169Z,97.90
2018-02-13T06:40:32.826Z,97.40
2018-02-13T06:43:00.452Z,97.60
2018-02-13T06:45:28.074Z,97.80
2018-02-13T06:47:55.721Z,97.70
2018-02-13T06:50:23.349Z,98.10
2018-02-13T06:52:50.994Z,98.00
2018-02-13T06:55:18.608Z,97.80
2018-02-13T06:57:46.263Z,97.00
2018-02-13T07:00:13.884Z,97.10
2018-02-13T07:02:41.505Z,97.20
2018-02-13T07:05:09.141Z,97.30
2018-02-13T07:07:36.761Z,97.40
2018-02-13T07:10:04.416Z,96.90
2018-02-13T07:12:32.028Z,96.80
2018-02-13T07:15:00.413Z,96.40
2018-02-13T07:17:28.056Z,96.80
2018-02-13T07:19:55.679Z,96.70
2018-02-13T07:22:24.107Z,97.20
2018-02-13T07:24:51.728Z,97.20
2018-02-13T07:27:19.354Z,97.10
2018-02-13T07:29:46.992Z,96.80
2018-02-13T07:32:15.369Z,96.40
2018-02-13T07:34:43.028Z,96.40
2018-02-13T07:37:10.668Z,95.80
2018-02-13T07:39:38.301Z,95.70
2018-02-13T07:42:06.700Z,95.80
2018-02-13T07:44:35.095Z,95.70
2018-02-13T07:47:03.513Z,95.30
2018-02-13T07:49:31.156Z,95.30
2018-02-13T07:51:58.781Z,95.40
2018-02-13T07:54:26.433Z,93.80
2018-02-13T07:56:54.053Z,92.60
2018-02-13T07:59:21.708Z,91.00
2018-02-13T08:01:49.384Z,90.20
2018-02-13T08:04:17.001Z,89.70
2018-02-13T08:06:45.409Z,86.00
2018-02-13T08:09:13.029Z,85.90
2018-02-13T08:11:40.681Z,85.60
2018-02-13T08:14:08.298Z,83.90
2018-02-13T08:16:35.913Z,83.40
2018-02-13T08:19:03.637Z,81.30
2018-02-13T08:21:31.249Z,78.40
2018-02-13T08:23:59.665Z,75.90
2018-02-13T08:26:27.273Z,75.90
2018-02-13T08:28:54.888Z,75.80
2018-02-13T08:31:22.521Z,75.20
2018-02-13T08:33:50.129Z,76.30
2018-02-13T08:36:18.564Z,64.90
2018-02-13T08:38:46.178Z,64.90
2018-02-13T08:41:13.793Z,43.00
2018-02-13T08:43:41.429Z,35.00
2018-02-13T08:46:09.805Z,30.00
2018-02-13T08:48:37.453Z,29.30
2018-02-13T08:51:05.065Z,28.00
2018-02-13T08:53:32.676Z,26.60
2018-02-13T08:56:00.313Z,27.80
2018-02-13T08:58:27.924Z,24.50
2018-02-13T09:00:56.005Z,23.10
2018-02-13T09:03:23.629Z,22.50
2018-02-13T09:05:51.249Z,23.00
2018-02-13T09:08:18.960Z,22.30
2018-02-13T09:10:46.589Z,20.90
2018-02-13T09:13:14.207Z,21.50
2018-02-13T09:15:41.846Z,22.20
2018-02-13T09:18:09.465Z,21.10
2018-02-13T09:20:37.077Z,21.00
2018-02-13T09:23:05.521Z,23.10
2018-02-13T09:25:33.129Z,23.00
2018-02-13T09:28:00.744Z,22.90
2018-02-13T09:30:28.389Z,23.70
2018-02-13T09:32:56.773Z,22.50
2018-02-13T09:35:25.193Z,22.10
2018-02-13T09:37:52.809Z,21.70
2018-02-13T09:40:20.472Z,22.50
2018-02-13T09:42:48.089Z,21.20
2018-02-13T09:45:16.469Z,19.20
2018-02-13T09:47:44.117Z,19.20
2018-02-13T09:50:11.733Z,18.20
2018-02-13T09:52:39.356Z,18.90
2018-02-13T09:55:06.997Z,18.40
2018-02-13T09:57:34.605Z,18.20
2018-02-13T10:00:02.270Z,19.50
2018-02-13T10:02:29.889Z,18.10
2018-02-13T10:04:57.504Z,16.90
2018-02-13T10:07:25.210Z,16.10
2018-02-13T10:09:52.820Z,16.20
2018-02-13T10:12:20.477Z,16.60
2018-02-13T10:14:48.133Z,15.90
2018-02-13T10:17:15.777Z,16.70
2018-02-13T10:19:43.449Z,15.80
2018-02-13T10:22:11.061Z,15.40
2018-02-13T10:24:38.721Z,14.40
2018-02-13T10:27:06.332Z,14.40
2018-02-13T10:29:33.957Z,14.30
2018-02-13T10:32:01.602Z,13.20
2018-02-13T10:34:29.981Z,14.40
2018-02-13T10:36:57.638Z,14.40
2018-02-13T10:39:25.252Z,15.60
2018-02-13T10:41:52.865Z,14.40
2018-02-13T10:44:20.505Z,13.20
2018-02-13T10:46:48.314Z,12.80
2018-02-13T10:49:15.964Z,12.60
2018-02-13T10:51:43.591Z,10.60
2018-02-13T10:54:11.988Z,14.90
2018-02-13T10:56:39.670Z,14.90
2018-02-13T10:59:07.304Z,14.30
2018-02-13T11:01:37.790Z,13.30
2018-02-13T11:04:05.399Z,12.80
2018-02-13T11:06:33.013Z,11.20
2018-02-13T11:09:00.666Z,10.20
2018-02-13T11:11:28.288Z,11.80
2018-02-13T11:13:57.533Z,11.30
2018-02-13T11:16:25.149Z,11.20
2018-02-13T11:18:52.777Z,12.50
2018-02-13T11:21:20.412Z,13.20
2018-02-13T11:23:48.790Z,15.60
2018-02-13T11:26:16.490Z,15.30
2018-02-13T11:28:44.089Z,15.90
2018-02-13T11:31:11.708Z,17.10
2018-02-13T11:33:39.345Z,17.60
2018-02-13T11:36:06.956Z,19.30
2018-02-13T11:38:34.714Z,21.00
2018-02-13T11:41:02.330Z,20.20
2018-02-13T11:43:30.713Z,20.60
2018-02-13T11:45:58.456Z,20.50
2018-02-13T11:48:26.068Z,22.00
2018-02-13T11:50:53.713Z,21.80
2018-02-13T11:53:21.325Z,20.20
2018-02-13T11:55:49.713Z,20.20
2018-02-13T11:58:18.111Z,18.80
2018-02-13T12:00:46.492Z,18.80
2018-02-13T12:03:14.906Z,19.10
2018-02-13T12:05:42.514Z,19.00
2018-02-13T12:08:10.175Z,19.30
2018-02-13T12:10:37.868Z,19.40
2018-02-13T12:13:05.484Z,18.70
2018-02-13T12:15:33.897Z,19.50
2018-02-13T12:18:01.713Z,19.50
2018-02-13T12:20:29.324Z,19.60
2018-02-13T12:22:56.965Z,20.40
2018-02-13T12:25:36.522Z,19.20
2018-02-13T12:28:04.198Z,18.70
2018-02-13T12:30:31.864Z,19.00
2018-02-13T12:32:59.472Z,18.70
2018-02-13T12:35:27.104Z,17.50
2018-02-13T12:37:54.719Z,17.10
2018-02-13T12:40:22.361Z,17.00
2018-02-13T12:42:49.969Z,17.80
2018-02-13T12:45:17.581Z,17.60
2018-02-13T12:47:45.212Z,17.60
2018-02-13T12:50:12.810Z,18.00
2018-02-13T12:52:41.212Z,17.10
2018-02-13T12:55:08.824Z,17.10
2018-02-13T12:57:36.429Z,16.30
2018-02-13T13:00:04.065Z,16.00
2018-02-13T13:02:31.681Z,15.60
2018-02-13T13:05:00.086Z,16.60
2018-02-13T13:07:28.457Z,16.30
2018-02-13T13:09:56.065Z,16.30
2018-02-13T13:12:23.689Z,15.20
2018-02-13T13:14:51.293Z,14.00
2018-02-13T13:17:19.692Z,14.10
2018-02-13T13:19:48.056Z,12.40
2018-02-13T13:22:15.661Z,12.40
2018-02-13T13:24:43.307Z,11.30
2018-02-13T13:27:10.913Z,12.80
2018-02-13T13:29:38.623Z,13.30
2018-02-13T13:32:06.233Z,12.80
2018-02-13T13:34:33.855Z,12.20
2018-02-13T13:37:01.495Z,13.10
2018-02-13T13:39:29.868Z,11.50
2018-02-13T13:41:57.510Z,11.40
2018-02-13T13:44:25.186Z,11.40
2018-02-13T13:46:54.243Z,10.20
2018-02-13T13:49:21.874Z,8.50
2018-02-13T13:51:49.489Z,9.90
2018-02-13T13:54:17.905Z,8.30
2018-02-13T13:56:45.512Z,8.30
2018-02-13T13:59:13.116Z,6.50
2018-02-13T14:01:40.753Z,7.80
2018-02-13T14:04:08.369Z,7.40
2018-02-13T14:06:36.773Z,7.20
2018-02-13T14:09:05.140Z,8.30
2018-02-13T14:11:32.728Z,8.20
2018-02-13T14:14:01.124Z,10.80
2018-02-13T14:16:29.496Z,12.00
2018-02-13T14:19:02.769Z,11.90
2018-02-13T14:21:30.373Z,11.10
2018-02-13T14:23:57.972Z,11.00
2018-02-13T14:26:26.360Z,8.60
2018-02-13T14:28:54.724Z,9.30
2018-02-13T14:31:22.365Z,9.30
2018-02-13T14:33:49.969Z,9.90
2018-02-13T14:36:17.577Z,10.40
2018-02-13T14:38:45.976Z,12.30
2018-02-13T14:41:13.580Z,12.20
2018-02-13T14:43:41.227Z,12.10
2018-02-13T14:46:08.840Z,14.30
2018-02-13T14:48:36.449Z,13.90
2018-02-13T14:51:04.081Z,13.30
2018-02-13T14:53:31.719Z,14.10
2018-02-13T14:56:00.152Z,14.70
2018-02-13T14:58:27.756Z,14.60
2018-02-13T15:00:55.377Z,13.90
2018-02-13T15:03:23.022Z,13.60
2018-02-13T15:05:51.397Z,14.10
2018-02-13T15:08:19.037Z,14.10
2018-02-13T15:10:46.643Z,13.50
2018-02-13T15:13:14.244Z,14.30
2018-02-13T15:15:42.639Z,15.80
2018-02-13T15:21:06.088Z,16.50
2018-02-13T15:23:33.821Z,15.50
2018-02-13T15:26:02.237Z,15.90
2018-02-13T15:28:29.933Z,15.90
2018-02-13T15:30:57.541Z,15.70
2018-02-13T15:33:25.181Z,15.30
2018-02-13T15:35:52.796Z,15.70
2018-02-13T15:38:21.197Z,16.90
2018-02-13T15:40:49.573Z,16.80
2018-02-13T15:43:17.173Z,16.80
2018-02-13T15:45:45.570Z,17.00
2018-02-13T15:48:13.176Z,17.00
2018-02-13T15:50:40.823Z,16.40
2018-02-13T15:53:08.428Z,16.30
2018-02-13T15:55:36.098Z,16.30
2018-02-13T15:58:03.728Z,15.70
2018-02-13T16:00:31.354Z,16.10
2018-02-13T16:02:58.992Z,16.40
2018-02-13T16:05:26.696Z,16.90
2018-02-13T16:07:54.292Z,17.90
2018-02-13T16:10:21.911Z,17.00
2018-02-13T16:12:49.514Z,17.20
2018-02-13T16:15:17.160Z,18.20
2018-02-13T16:17:44.769Z,18.50
2018-02-13T16:20:12.380Z,19.00
2018-02-13T16:22:40.772Z,21.10
2018-02-13T16:25:08.387Z,21.30
2018-02-13T16:27:36.078Z,20.70
2018-02-13T16:30:03.676Z,21.10
2018-02-13T16:32:31.365Z,20.80
2018-02-13T16:34:59.020Z,20.20
2018-02-13T16:37:26.940Z,21.40
2018-02-13T16:39:55.340Z,21.20
2018-02-13T16:42:23.848Z,21.20
2018-02-13T16:44:51.462Z,22.30
2018-02-13T16:47:19.097Z,23.00
2018-02-13T16:49:46.791Z,24.10
2018-02-13T16:52:23.709Z,24.40
2018-02-13T16:54:51.353Z,25.60
2018-02-13T16:57:19.501Z,25.30
2018-02-13T16:59:47.878Z,27.10
2018-02-13T17:02:16.695Z,27.10
2018-02-13T17:04:44.356Z,26.80
2018-02-13T17:07:15.406Z,27.50
2018-02-13T17:09:43.965Z,27.30
2018-02-13T17:12:11.569Z,27.30
2018-02-13T17:14:39.173Z,28.10
2018-02-13T17:17:06.804Z,28.30
2018-02-13T17:19:34.416Z,30.70
2018-02-13T17:22:09.457Z,33.10
2018-02-13T17:24:37.772Z,33.00
2018-02-13T17:27:06.614Z,34.70
2018-02-13T17:29:34.193Z,34.40
2018-02-13T17:32:02.584Z,33.50
2018-02-13T17:34:30.784Z,33.50
2018-02-13T17:36:59.546Z,33.80
2018-02-13T17:39:39.009Z,36.50
2018-02-13T17:42:07.504Z,36.40
2018-02-13T17:44:35.317Z,36.70
2018-02-13T17:47:04.816Z,36.30
2018-02-13T17:49:33.392Z,36.00
2018-02-13T17:52:01.056Z,36.80
2018-02-13T17:54:30.200Z,37.70
2018-02-13T17:56:57.821Z,38.20
2018-02-13T17:59:25.455Z,39.80
2018-02-13T18:01:53.112Z,41.00
2018-02-13T18:04:22.121Z,39.90
2018-02-13T18:06:50.076Z,41.00
2018-02-13T18:09:17.722Z,40.40
2018-02-13T18:11:45.369Z,41.20
2018-02-13T18:14:12.981Z,41.70
2018-02-13T18:16:40.641Z,42.50
2018-02-13T18:19:08.320Z,42.00
2018-02-13T18:21:35.928Z,43.30
2018-02-13T18:24:03.629Z,43.40
2018-02-13T18:26:31.285Z,44.30
2018-02-13T18:28:58.950Z,44.30
2018-02-13T18:31:26.645Z,44.40
2018-02-13T18:33:54.283Z,44.30
2018-02-13T18:36:21.957Z,44.40
2018-02-13T18:38:49.573Z,44.30
2018-02-13T18:41:17.225Z,45.50
2018-02-13T18:43:44.872Z,46.30
2018-02-13T18:46:13.093Z,46.10
2018-02-13T18:48:40.742Z,44.40
2018-02-13T18:51:09.469Z,44.30
2018-02-13T18:53:37.484Z,45.40
2018-02-13T18:56:05.105Z,46.70
2018-02-13T18:58:33.531Z,47.00
2018-02-13T19:01:01.194Z,47.90
2018-02-13T19:03:28.810Z,48.10
2018-02-13T19:05:57.240Z,48.90
2018-02-13T19:08:24.845Z,48.80
2018-02-13T19:10:52.496Z,49.30
2018-02-13T19:13:20.138Z,47.50
2018-02-13T19:15:48.520Z,46.70
2018-02-13T19:18:16.941Z,46.80
2018-02-13T19:20:44.556Z,46.80
2018-02-13T19:23:12.536Z,47.00
2018-02-13T19:25:40.194Z,47.00
2018-02-13T19:28:07.958Z,48.10
2018-02-13T19:30:35.604Z,49.10
2018-02-13T19:33:03.225Z,49.90
2018-02-13T19:35:30.842Z,50.40
2018-02-13T19:37:59.248Z,52.30
2018-02-13T19:40:26.878Z,52.20
2018-02-13T19:42:54.534Z,52.30
2018-02-13T19:45:22.765Z,51.30
2018-02-13T19:47:50.577Z,49.90
2018-02-13T19:50:18.542Z,49.70
2018-02-13T19:52:46.156Z,50.00
2018-02-13T19:55:13.805Z,51.40
2018-02-13T19:57:41.447Z,52.20
2018-02-13T20:00:10.881Z,51.30
2018-02-13T20:02:39.421Z,51.30
2018-02-13T20:05:08.390Z,52.50
2018-02-13T20:07:36.060Z,53.40
2018-02-13T20:10:03.684Z,53.80
2018-02-13T20:12:32.102Z,54.90
2018-02-13T20:15:00.514Z,56.40
2018-02-13T20:17:28.915Z,56.40
2018-02-13T20:19:56.552Z,56.50
2018-02-13T20:22:26.025Z,56.60
2018-02-13T20:24:53.654Z,56.20
2018-02-13T20:27:22.047Z,58.00
2018-02-13T20:29:51.564Z,57.30
2018-02-13T20:32:21.096Z,56.10
2018-02-13T20:34:49.530Z,55.60
2018-02-13T20:37:23.955Z,55.50
2018-02-13T20:39:52.413Z,55.90
2018-02-13T20:42:20.958Z,55.90
2018-02-13T20:44:48.578Z,55.90
2018-02-13T20:47:17.002Z,56.30
2018-02-13T20:49:44.690Z,56.30
2018-02-13T20:52:12.413Z,56.00
2018-02-13T20:54:40.652Z,55.30
2018-02-13T20:57:08.318Z,55.50
2018-02-13T20:59:36.528Z,56.70
2018-02-13T21:02:04.145Z,57.60
2018-02-13T21:04:32.563Z,59.40
2018-02-13T21:07:00.178Z,59.40
2018-02-13T21:09:27.813Z,60.50
2018-02-13T21:11:55.452Z,60.80
2018-02-13T21:14:23.081Z,61.70
2018-02-13T21:16:50.703Z,61.20
2018-02-13T21:19:20.285Z,63.70
2018-02-13T21:21:48.427Z,63.90
2018-02-13T21:24:16.480Z,63.20
2018-02-13T21:26:44.509Z,61.40
2018-02-13T21:29:12.129Z,60.00
2018-02-13T21:31:40.334Z,60.60
2018-02-13T21:34:08.729Z,63.70
2018-02-13T21:36:37.117Z,62.90
2018-02-13T21:39:04.769Z,62.80
2018-02-13T21:41:32.388Z,63.20
2018-02-13T21:44:00.038Z,63.50
2018-02-13T21:46:28.604Z,64.20
2018-02-13T21:48:56.773Z,63.30
2018-02-13T21:51:24.401Z,64.80
2018-02-13T21:53:53.451Z,66.60
2018-02-13T21:56:21.080Z,66.60
2018-02-13T21:58:50.642Z,68.20
2018-02-13T22:01:18.335Z,68.10
2018-02-13T22:03:45.949Z,69.40
2018-02-13T22:06:14.391Z,71.10
2018-02-13T22:08:42.013Z,71.10
2018-02-13T22:11:10.800Z,67.80
2018-02-13T22:13:38.953Z,67.80
2018-02-13T22:16:06.906Z,68.10
2018-02-13T22:18:34.553Z,68.90
2018-02-13T22:21:02.169Z,70.00
2018-02-13T22:23:30.085Z,69.30
2018-02-13T22:25:57.711Z,71.20
2018-02-13T22:28:25.542Z,73.40
2018-02-13T22:30:53.190Z,73.60
2018-02-13T22:33:20.936Z,73.90
2018-02-13T22:35:48.588Z,75.50
2018-02-13T22:38:16.201Z,74.00
2018-02-13T22:40:44.039Z,72.10
2018-02-13T22:43:12.559Z,70.40
2018-02-13T22:45:40.189Z,70.40
2018-02-13T22:48:07.950Z,70.60
2018-02-13T22:50:35.603Z,72.10
2018-02-13T22:53:03.230Z,71.60
2018-02-13T22:55:30.904Z,71.90
2018-02-13T22:57:58.538Z,70.90
2018-02-13T23:00:26.197Z,72.30
2018-02-13T23:02:53.816Z,73.30
2018-02-13T23:05:21.448Z,71.20
2018-02-13T23:07:49.089Z,72.00
2018-02-13T23:10:16.721Z,73.70
2018-02-13T23:12:44.385Z,74.40
2018-02-13T23:15:12.044Z,74.20
2018-02-13T23:17:39.655Z,73.20
2018-02-13T23:20:07.300Z,73.70
2018-02-13T23:22:35.093Z,74.00
2018-02-13T23:25:02.756Z,74.30
2018-02-13T23:27:30.372Z,73.10
2018-02-13T23:29:57.993Z,72.60
2018-02-13T23:32:25.637Z,71.90
2018-02-13T23:34:53.257Z,72.90
2018-02-13T23:37:20.912Z,74.60
2018-02-13T23:39:48.538Z,74.90
2018-02-13T23:42:16.185Z,75.20
2018-02-13T23:44:43.829Z,75.40
2018-02-13T23:47:11.453Z,75.70
2018-02-13T23:49:39.113Z,74.80
2018-02-13T23:52:06.732Z,74.90
2018-02-13T23:54:35.120Z,76.40
2018-02-13T23:57:03.545Z,76.40
2018-02-13T23:59:31.160Z,76.40
